Pagrindinis puslapis
METAR-TAF:

METAR-TAF

Oro uostai :

Vladikaukazas, Rusija

platuma: 43-12-18N, ilguma: 044-36-24E, Aukštis: 510 m

Dabartinis oras

Ataskaita buvo paskelbta 4 valandos ir 33 minutes, ne 17:30 UTC
Vėjas 6 kt iš Rytų
Temperatūra -3°C
Drėgmė 100%
Slėgis 1018 hPa
Matomumas: 7000 m
Išsisklaidę debesys ne aukštis 500 ft

METAR: URMO 151730Z 09003MPS 7000 SCT005 M03/M03 Q1018 R09/010070 NOSIG RMK MT OBSC QFE720/0960

Laikas: 01:03 (22:03 UTC)

Prognozė

Ataskaita buvo paskelbta 8 valandos ir 3 minutes, ne 14:00 UTC
Prognozė galioja nuo 15 metu 15 UTC su 15 metu 24 UTC
Vėjas 6 kt iš Vakarų su gūsio iki 16 kt
Matomumas: 1000 m
Apsiniaukę ne aukštis 300 ft
rūkana
Laikinai
nuo 15 metu 15 UTC su 15 metu 21 UTC
Matomumas: 0300 m
Apsiniaukę ne aukštis 200 ft
įšaldymas rūko

TAF: URMO 151400Z 1515/1524 26003G08MPS 1000 BR OVC003 TEMPO 1515/1521 0300 FZFG OVC002

Orai ataskaitas ir orų prognozės (METAR, TAF).

turimą stotys yra geltonos ir raudonos taškus žemėlapyje.

Perkelti pele per norėdami pamatyti stoties vardą.

Tada spustelėkite, norėdami matyti oro stebėjimo ir prognozės.

Norėdami pakeisti žemėlapį: spustelėkite ant žalios mygtukų su juodo kryžiaus žemyn,; žalią mygtuką su brūkšneliu, jei norite nutolinti; arba žalių rodyklių gretimoms žemėlapius.


METAR-TAF: